Midpark, Ohio
Current Conditions -  °F | °C
As of 4:51 PM on Sunday 23 Nov 2014 (Local Time) from KCLE Reporting Station
Overcast Overcast  
Wind Chill: 56°   Ceiling: 18000
Heat Index: 56°   Visibility: 10mi
Dew Point: 43°   Wind: 12mph
Humidity: 62%   Direction: 120°ESE
Pressure: 29.74"   Gusts: NA
Location:  41.3776°N, 81.7863°W
Report Text: KCLE 232151Z 12010KT 10SM OVC180 13/06 A2974 RMK AO2 SLP074 T01330061 $
Loading
Personal Weather Stations






























Interactive Weather Map New forecast layout! Learn more

10-Day Weather Forecast

Advertisements
Track Severe Weather on mobile